sensor_id;sensor_type;location;lat;lon;timestamp;temperature;humidity
24560;DHT22;12727;49.934;8.656;2024-02-04T00:01:39;9.50;99.90
24560;DHT22;12727;49.934;8.656;2024-02-04T00:04:05;9.40;99.90
24560;DHT22;12727;49.934;8.656;2024-02-04T00:06:30;9.30;99.90
24560;DHT22;12727;49.934;8.656;2024-02-04T00:08:56;9.30;99.90
24560;DHT22;12727;49.934;8.656;2024-02-04T00:11:21;9.30;99.90
24560;DHT22;12727;49.934;8.656;2024-02-04T00:13:47;9.30;99.90
24560;DHT22;12727;49.934;8.656;2024-02-04T00:16:13;9.40;99.90
24560;DHT22;12727;49.934;8.656;2024-02-04T00:18:38;9.40;99.90
24560;DHT22;12727;49.934;8.656;2024-02-04T00:21:04;9.40;99.90
24560;DHT22;12727;49.934;8.656;2024-02-04T00:23:30;9.40;99.90
24560;DHT22;12727;49.934;8.656;2024-02-04T00:25:55;9.50;99.90
24560;DHT22;12727;49.934;8.656;2024-02-04T00:28:21;9.40;99.90
24560;DHT22;12727;49.934;8.656;2024-02-04T00:30:47;9.30;99.90
24560;DHT22;12727;49.934;8.656;2024-02-04T00:33:15;9.30;99.90
24560;DHT22;12727;49.934;8.656;2024-02-04T00:35:41;9.30;99.90
24560;DHT22;12727;49.934;8.656;2024-02-04T00:38:07;9.30;99.90
24560;DHT22;12727;49.934;8.656;2024-02-04T00:40:34;9.30;99.90
24560;DHT22;12727;49.934;8.656;2024-02-04T00:42:59;9.40;99.90
24560;DHT22;12727;49.934;8.656;2024-02-04T00:45:26;9.40;99.90
24560;DHT22;12727;49.934;8.656;2024-02-04T00:47:51;9.50;99.90
24560;DHT22;12727;49.934;8.656;2024-02-04T00:50:17;9.40;99.90
24560;DHT22;12727;49.934;8.656;2024-02-04T00:52:43;9.50;99.90
24560;DHT22;12727;49.934;8.656;2024-02-04T00:55:08;9.50;99.90
24560;DHT22;12727;49.934;8.656;2024-02-04T00:57:34;9.60;99.90
24560;DHT22;12727;49.934;8.656;2024-02-04T00:59:59;9.50;99.90
24560;DHT22;12727;49.934;8.656;2024-02-04T01:02:25;9.40;99.90
24560;DHT22;12727;49.934;8.656;2024-02-04T01:04:50;9.50;99.90
24560;DHT22;12727;49.934;8.656;2024-02-04T01:07:17;9.50;99.90
24560;DHT22;12727;49.934;8.656;2024-02-04T01:09:42;9.40;99.90
24560;DHT22;12727;49.934;8.656;2024-02-04T01:12:08;9.50;99.90
24560;DHT22;12727;49.934;8.656;2024-02-04T01:14:34;9.50;99.90
24560;DHT22;12727;49.934;8.656;2024-02-04T01:17:00;9.40;99.90
24560;DHT22;12727;49.934;8.656;2024-02-04T01:19:25;9.30;99.90
24560;DHT22;12727;49.934;8.656;2024-02-04T01:21:51;9.20;99.90
24560;DHT22;12727;49.934;8.656;2024-02-04T01:24:16;9.30;99.90
24560;DHT22;12727;49.934;8.656;2024-02-04T01:26:42;9.30;99.90
24560;DHT22;12727;49.934;8.656;2024-02-04T01:29:08;9.40;99.90
24560;DHT22;12727;49.934;8.656;2024-02-04T01:31:33;9.40;99.90
24560;DHT22;12727;49.934;8.656;2024-02-04T01:33:59;9.40;99.90
24560;DHT22;12727;49.934;8.656;2024-02-04T01:36:24;9.40;99.90
24560;DHT22;12727;49.934;8.656;2024-02-04T01:38:50;9.50;99.90
24560;DHT22;12727;49.934;8.656;2024-02-04T01:41:15;9.50;99.90
24560;DHT22;12727;49.934;8.656;2024-02-04T01:43:41;9.50;99.90
24560;DHT22;12727;49.934;8.656;2024-02-04T01:46:07;9.60;99.90
24560;DHT22;12727;49.934;8.656;2024-02-04T01:48:33;9.50;99.90
24560;DHT22;12727;49.934;8.656;2024-02-04T01:50:59;9.40;99.90
24560;DHT22;12727;49.934;8.656;2024-02-04T01:53:26;9.30;99.90
24560;DHT22;12727;49.934;8.656;2024-02-04T01:55:53;9.30;99.90
24560;DHT22;12727;49.934;8.656;2024-02-04T01:58:20;9.40;99.90
24560;DHT22;12727;49.934;8.656;2024-02-04T02:00:47;9.40;99.90
24560;DHT22;12727;49.934;8.656;2024-02-04T02:03:14;9.40;99.90
24560;DHT22;12727;49.934;8.656;2024-02-04T02:05:41;9.40;99.90
24560;DHT22;12727;49.934;8.656;2024-02-04T02:08:07;9.40;99.90
24560;DHT22;12727;49.934;8.656;2024-02-04T02:10:33;9.30;99.90
24560;DHT22;12727;49.934;8.656;2024-02-04T02:13:04;9.30;99.90
24560;DHT22;12727;49.934;8.656;2024-02-04T02:15:36;9.10;99.90
24560;DHT22;12727;49.934;8.656;2024-02-04T02:18:09;9.00;99.90
24560;DHT22;12727;49.934;8.656;2024-02-04T02:23:48;8.80;99.90
24560;DHT22;12727;49.934;8.656;2024-02-04T02:26:15;8.60;99.90
24560;DHT22;12727;49.934;8.656;2024-02-04T02:28:41;8.60;99.90
24560;DHT22;12727;49.934;8.656;2024-02-04T02:31:06;8.50;99.90
24560;DHT22;12727;49.934;8.656;2024-02-04T02:33:32;8.50;99.90
24560;DHT22;12727;49.934;8.656;2024-02-04T02:35:58;8.50;99.90
24560;DHT22;12727;49.934;8.656;2024-02-04T02:38:40;8.40;99.90
24560;DHT22;12727;49.934;8.656;2024-02-04T02:41:10;8.40;99.90
24560;DHT22;12727;49.934;8.656;2024-02-04T02:43:39;8.30;99.90
24560;DHT22;12727;49.934;8.656;2024-02-04T02:46:07;8.30;99.90
24560;DHT22;12727;49.934;8.656;2024-02-04T02:48:33;8.30;99.90
24560;DHT22;12727;49.934;8.656;2024-02-04T02:50:58;8.30;99.90
24560;DHT22;12727;49.934;8.656;2024-02-04T02:53:24;8.20;99.90
24560;DHT22;12727;49.934;8.656;2024-02-04T02:55:49;8.20;99.90
24560;DHT22;12727;49.934;8.656;2024-02-04T02:58:15;8.20;99.90
24560;DHT22;12727;49.934;8.656;2024-02-04T03:00:40;8.20;99.90
24560;DHT22;12727;49.934;8.656;2024-02-04T03:03:06;8.20;99.90
24560;DHT22;12727;49.934;8.656;2024-02-04T03:05:31;8.20;99.90
24560;DHT22;12727;49.934;8.656;2024-02-04T03:07:58;8.20;99.90
24560;DHT22;12727;49.934;8.656;2024-02-04T03:10:23;8.30;99.90
24560;DHT22;12727;49.934;8.656;2024-02-04T03:12:49;8.30;99.90
24560;DHT22;12727;49.934;8.656;2024-02-04T03:15:14;8.30;99.90
24560;DHT22;12727;49.934;8.656;2024-02-04T03:17:40;8.30;99.90
24560;DHT22;12727;49.934;8.656;2024-02-04T03:20:05;8.40;99.90
24560;DHT22;12727;49.934;8.656;2024-02-04T03:22:31;8.50;99.90
24560;DHT22;12727;49.934;8.656;2024-02-04T03:24:57;8.60;99.90
24560;DHT22;12727;49.934;8.656;2024-02-04T03:27:22;8.60;99.90
24560;DHT22;12727;49.934;8.656;2024-02-04T03:29:48;8.60;99.90
24560;DHT22;12727;49.934;8.656;2024-02-04T03:32:13;8.50;99.90
24560;DHT22;12727;49.934;8.656;2024-02-04T03:34:41;8.40;99.90
24560;DHT22;12727;49.934;8.656;2024-02-04T03:37:07;8.40;99.90
24560;DHT22;12727;49.934;8.656;2024-02-04T03:39:33;8.40;99.90
24560;DHT22;12727;49.934;8.656;2024-02-04T03:41:58;8.30;99.90
24560;DHT22;12727;49.934;8.656;2024-02-04T03:44:23;8.30;99.90
24560;DHT22;12727;49.934;8.656;2024-02-04T03:46:50;8.30;99.90
24560;DHT22;12727;49.934;8.656;2024-02-04T03:49:16;8.20;99.90
24560;DHT22;12727;49.934;8.656;2024-02-04T03:51:42;8.10;99.90
24560;DHT22;12727;49.934;8.656;2024-02-04T03:54:07;8.20;99.90
24560;DHT22;12727;49.934;8.656;2024-02-04T03:56:33;8.30;99.90
24560;DHT22;12727;49.934;8.656;2024-02-04T03:58:59;8.30;99.90
24560;DHT22;12727;49.934;8.656;2024-02-04T04:01:24;8.20;99.90
24560;DHT22;12727;49.934;8.656;2024-02-04T04:03:50;8.30;99.90
24560;DHT22;12727;49.934;8.656;2024-02-04T04:06:15;8.40;99.90
24560;DHT22;12727;49.934;8.656;2024-02-04T04:08:41;8.50;99.90
24560;DHT22;12727;49.934;8.656;2024-02-04T04:11:10;8.50;99.90
24560;DHT22;12727;49.934;8.656;2024-02-04T04:13:37;8.60;99.90
24560;DHT22;12727;49.934;8.656;2024-02-04T04:16:03;8.30;99.90
24560;DHT22;12727;49.934;8.656;2024-02-04T04:18:29;8.40;99.90
24560;DHT22;12727;49.934;8.656;2024-02-04T04:20:54;8.30;99.90
24560;DHT22;12727;49.934;8.656;2024-02-04T04:23:20;8.40;99.90
24560;DHT22;12727;49.934;8.656;2024-02-04T04:25:45;8.30;99.90
24560;DHT22;12727;49.934;8.656;2024-02-04T04:28:11;8.30;99.90
24560;DHT22;12727;49.934;8.656;2024-02-04T04:30:36;8.20;99.90
24560;DHT22;12727;49.934;8.656;2024-02-04T04:33:02;8.20;99.90
24560;DHT22;12727;49.934;8.656;2024-02-04T04:35:27;8.20;99.90
24560;DHT22;12727;49.934;8.656;2024-02-04T04:37:53;8.20;99.90
24560;DHT22;12727;49.934;8.656;2024-02-04T04:40:19;8.30;99.90
24560;DHT22;12727;49.934;8.656;2024-02-04T04:42:45;8.30;99.90
24560;DHT22;12727;49.934;8.656;2024-02-04T04:45:10;8.30;99.90
24560;DHT22;12727;49.934;8.656;2024-02-04T04:47:37;8.30;99.90
24560;DHT22;12727;49.934;8.656;2024-02-04T04:50:04;8.40;99.90
24560;DHT22;12727;49.934;8.656;2024-02-04T04:52:30;8.40;99.90
24560;DHT22;12727;49.934;8.656;2024-02-04T04:54:55;8.50;99.90
24560;DHT22;12727;49.934;8.656;2024-02-04T04:57:22;8.60;99.90
24560;DHT22;12727;49.934;8.656;2024-02-04T04:59:47;8.60;99.90
24560;DHT22;12727;49.934;8.656;2024-02-04T05:02:13;8.50;99.90
24560;DHT22;12727;49.934;8.656;2024-02-04T05:04:41;8.50;99.90
24560;DHT22;12727;49.934;8.656;2024-02-04T05:07:07;8.40;99.90
24560;DHT22;12727;49.934;8.656;2024-02-04T05:09:32;8.50;99.90
24560;DHT22;12727;49.934;8.656;2024-02-04T05:11:58;8.50;99.90
24560;DHT22;12727;49.934;8.656;2024-02-04T05:14:24;8.50;99.90
24560;DHT22;12727;49.934;8.656;2024-02-04T05:16:49;8.40;99.90
24560;DHT22;12727;49.934;8.656;2024-02-04T05:19:15;8.40;99.90
24560;DHT22;12727;49.934;8.656;2024-02-04T05:21:40;8.50;99.90
24560;DHT22;12727;49.934;8.656;2024-02-04T05:24:06;8.50;99.90
24560;DHT22;12727;49.934;8.656;2024-02-04T05:26:31;8.50;99.90
24560;DHT22;12727;49.934;8.656;2024-02-04T05:28:57;8.50;99.90
24560;DHT22;12727;49.934;8.656;2024-02-04T05:31:22;8.50;99.90
24560;DHT22;12727;49.934;8.656;2024-02-04T05:33:48;8.50;99.90
24560;DHT22;12727;49.934;8.656;2024-02-04T05:36:13;8.50;99.90
24560;DHT22;12727;49.934;8.656;2024-02-04T05:38:39;8.40;99.90
24560;DHT22;12727;49.934;8.656;2024-02-04T05:41:05;8.40;99.90
24560;DHT22;12727;49.934;8.656;2024-02-04T05:43:30;8.40;99.90
24560;DHT22;12727;49.934;8.656;2024-02-04T05:45:56;8.40;99.90
24560;DHT22;12727;49.934;8.656;2024-02-04T05:48:21;8.50;99.90
24560;DHT22;12727;49.934;8.656;2024-02-04T05:50:47;8.50;99.90
24560;DHT22;12727;49.934;8.656;2024-02-04T05:53:12;8.50;99.90
24560;DHT22;12727;49.934;8.656;2024-02-04T05:55:39;8.50;99.90
24560;DHT22;12727;49.934;8.656;2024-02-04T05:58:04;8.50;99.90
24560;DHT22;12727;49.934;8.656;2024-02-04T06:00:30;8.50;99.90
24560;DHT22;12727;49.934;8.656;2024-02-04T06:02:55;8.50;99.90
24560;DHT22;12727;49.934;8.656;2024-02-04T06:05:21;8.50;99.90
24560;DHT22;12727;49.934;8.656;2024-02-04T06:07:47;8.50;99.90
24560;DHT22;12727;49.934;8.656;2024-02-04T06:10:12;8.50;99.90
24560;DHT22;12727;49.934;8.656;2024-02-04T06:12:38;8.50;99.90
24560;DHT22;12727;49.934;8.656;2024-02-04T06:15:11;8.70;99.90
24560;DHT22;12727;49.934;8.656;2024-02-04T06:17:37;8.70;99.90
24560;DHT22;12727;49.934;8.656;2024-02-04T06:20:03;8.70;99.90
24560;DHT22;12727;49.934;8.656;2024-02-04T06:22:28;8.70;99.90
24560;DHT22;12727;49.934;8.656;2024-02-04T06:24:54;8.70;99.90
24560;DHT22;12727;49.934;8.656;2024-02-04T06:27:19;8.70;99.90
24560;DHT22;12727;49.934;8.656;2024-02-04T06:29:45;8.60;99.90
24560;DHT22;12727;49.934;8.656;2024-02-04T06:32:10;8.60;99.90
24560;DHT22;12727;49.934;8.656;2024-02-04T06:34:37;8.60;99.90
24560;DHT22;12727;49.934;8.656;2024-02-04T06:37:02;8.60;99.90
24560;DHT22;12727;49.934;8.656;2024-02-04T06:39:28;8.50;99.90
24560;DHT22;12727;49.934;8.656;2024-02-04T06:41:53;8.50;99.90
24560;DHT22;12727;49.934;8.656;2024-02-04T06:44:19;8.50;99.90
24560;DHT22;12727;49.934;8.656;2024-02-04T06:46:44;8.50;99.90
24560;DHT22;12727;49.934;8.656;2024-02-04T06:49:10;8.60;99.90
24560;DHT22;12727;49.934;8.656;2024-02-04T06:51:36;8.50;99.90
24560;DHT22;12727;49.934;8.656;2024-02-04T06:54:01;8.50;99.90
24560;DHT22;12727;49.934;8.656;2024-02-04T06:56:27;8.40;99.90
24560;DHT22;12727;49.934;8.656;2024-02-04T06:58:52;8.40;99.90
24560;DHT22;12727;49.934;8.656;2024-02-04T07:01:18;8.40;99.90
24560;DHT22;12727;49.934;8.656;2024-02-04T07:03:43;8.40;99.90
24560;DHT22;12727;49.934;8.656;2024-02-04T07:06:10;8.60;99.90
24560;DHT22;12727;49.934;8.656;2024-02-04T07:08:36;8.70;99.90
24560;DHT22;12727;49.934;8.656;2024-02-04T07:11:01;8.70;99.90
24560;DHT22;12727;49.934;8.656;2024-02-04T07:13:28;8.80;99.90
24560;DHT22;12727;49.934;8.656;2024-02-04T07:15:53;8.80;99.90
24560;DHT22;12727;49.934;8.656;2024-02-04T07:18:20;8.80;99.90
24560;DHT22;12727;49.934;8.656;2024-02-04T07:20:47;8.70;99.90
24560;DHT22;12727;49.934;8.656;2024-02-04T07:23:13;8.70;99.90
24560;DHT22;12727;49.934;8.656;2024-02-04T07:25:38;8.70;99.90
24560;DHT22;12727;49.934;8.656;2024-02-04T07:28:04;8.70;99.90
24560;DHT22;12727;49.934;8.656;2024-02-04T07:30:30;8.80;99.90
24560;DHT22;12727;49.934;8.656;2024-02-04T07:32:55;8.70;99.90
24560;DHT22;12727;49.934;8.656;2024-02-04T07:35:21;8.80;99.90
24560;DHT22;12727;49.934;8.656;2024-02-04T07:37:47;8.80;99.90
24560;DHT22;12727;49.934;8.656;2024-02-04T07:40:12;8.80;99.90
24560;DHT22;12727;49.934;8.656;2024-02-04T07:42:38;8.80;99.90
24560;DHT22;12727;49.934;8.656;2024-02-04T07:45:04;8.80;99.90
24560;DHT22;12727;49.934;8.656;2024-02-04T07:47:34;8.80;99.90
24560;DHT22;12727;49.934;8.656;2024-02-04T07:49:59;8.80;99.90
24560;DHT22;12727;49.934;8.656;2024-02-04T07:52:25;8.90;99.90
24560;DHT22;12727;49.934;8.656;2024-02-04T07:54:51;8.90;99.90
24560;DHT22;12727;49.934;8.656;2024-02-04T07:57:16;8.80;99.90
24560;DHT22;12727;49.934;8.656;2024-02-04T07:59:42;8.80;99.90
24560;DHT22;12727;49.934;8.656;2024-02-04T08:02:08;8.80;99.90
24560;DHT22;12727;49.934;8.656;2024-02-04T08:04:34;8.90;99.90
24560;DHT22;12727;49.934;8.656;2024-02-04T08:06:59;8.90;99.90
24560;DHT22;12727;49.934;8.656;2024-02-04T08:09:25;8.90;99.90
24560;DHT22;12727;49.934;8.656;2024-02-04T08:11:51;8.90;99.90
24560;DHT22;12727;49.934;8.656;2024-02-04T08:14:16;8.90;99.90
24560;DHT22;12727;49.934;8.656;2024-02-04T08:16:43;8.90;99.90
24560;DHT22;12727;49.934;8.656;2024-02-04T08:19:08;8.90;99.90
24560;DHT22;12727;49.934;8.656;2024-02-04T08:21:34;8.90;99.90
24560;DHT22;12727;49.934;8.656;2024-02-04T08:24:00;8.90;99.90
24560;DHT22;12727;49.934;8.656;2024-02-04T08:26:25;8.90;99.90
24560;DHT22;12727;49.934;8.656;2024-02-04T08:28:51;8.90;99.90
24560;DHT22;12727;49.934;8.656;2024-02-04T08:31:16;8.90;99.90
24560;DHT22;12727;49.934;8.656;2024-02-04T08:33:42;8.90;99.90
24560;DHT22;12727;49.934;8.656;2024-02-04T08:36:08;8.90;99.90
24560;DHT22;12727;49.934;8.656;2024-02-04T08:38:36;8.90;99.90
24560;DHT22;12727;49.934;8.656;2024-02-04T08:41:03;9.00;99.90
24560;DHT22;12727;49.934;8.656;2024-02-04T08:43:28;9.00;99.90
24560;DHT22;12727;49.934;8.656;2024-02-04T08:45:54;9.00;99.90
24560;DHT22;12727;49.934;8.656;2024-02-04T08:48:20;9.10;99.90
24560;DHT22;12727;49.934;8.656;2024-02-04T08:50:45;9.00;99.90
24560;DHT22;12727;49.934;8.656;2024-02-04T08:53:11;8.90;99.90
24560;DHT22;12727;49.934;8.656;2024-02-04T08:55:36;8.90;99.90
24560;DHT22;12727;49.934;8.656;2024-02-04T08:58:02;8.80;99.90
24560;DHT22;12727;49.934;8.656;2024-02-04T09:00:27;8.80;99.90
24560;DHT22;12727;49.934;8.656;2024-02-04T09:02:53;8.80;99.90
24560;DHT22;12727;49.934;8.656;2024-02-04T09:05:18;8.80;99.90
24560;DHT22;12727;49.934;8.656;2024-02-04T09:07:45;8.80;99.90
24560;DHT22;12727;49.934;8.656;2024-02-04T09:10:11;8.90;99.90
24560;DHT22;12727;49.934;8.656;2024-02-04T09:12:38;9.10;99.90
24560;DHT22;12727;49.934;8.656;2024-02-04T09:15:04;9.30;99.90
24560;DHT22;12727;49.934;8.656;2024-02-04T09:17:30;9.30;99.90
24560;DHT22;12727;49.934;8.656;2024-02-04T09:19:57;9.50;99.90
24560;DHT22;12727;49.934;8.656;2024-02-04T09:22:23;9.60;99.90
24560;DHT22;12727;49.934;8.656;2024-02-04T09:24:48;9.70;99.90
24560;DHT22;12727;49.934;8.656;2024-02-04T09:27:15;9.70;99.90
24560;DHT22;12727;49.934;8.656;2024-02-04T09:29:41;9.60;99.90
24560;DHT22;12727;49.934;8.656;2024-02-04T09:32:06;9.50;99.90
24560;DHT22;12727;49.934;8.656;2024-02-04T09:34:33;9.50;99.90
24560;DHT22;12727;49.934;8.656;2024-02-04T09:36:58;9.50;99.90
24560;DHT22;12727;49.934;8.656;2024-02-04T09:39:24;9.60;99.90
24560;DHT22;12727;49.934;8.656;2024-02-04T09:41:50;9.70;99.90
24560;DHT22;12727;49.934;8.656;2024-02-04T09:44:15;9.80;99.90
24560;DHT22;12727;49.934;8.656;2024-02-04T09:46:42;10.00;99.90
24560;DHT22;12727;49.934;8.656;2024-02-04T09:49:08;10.40;99.90
24560;DHT22;12727;49.934;8.656;2024-02-04T09:51:34;10.40;99.90
24560;DHT22;12727;49.934;8.656;2024-02-04T09:54:03;10.40;99.90
24560;DHT22;12727;49.934;8.656;2024-02-04T09:56:32;10.30;99.90
24560;DHT22;12727;49.934;8.656;2024-02-04T09:58:58;10.20;99.90
24560;DHT22;12727;49.934;8.656;2024-02-04T10:01:24;10.20;99.90
24560;DHT22;12727;49.934;8.656;2024-02-04T10:03:50;10.20;99.90
24560;DHT22;12727;49.934;8.656;2024-02-04T10:06:18;10.20;99.90
24560;DHT22;12727;49.934;8.656;2024-02-04T10:08:44;10.20;99.90
24560;DHT22;12727;49.934;8.656;2024-02-04T10:11:11;10.10;99.90
24560;DHT22;12727;49.934;8.656;2024-02-04T10:13:48;10.10;99.90
24560;DHT22;12727;49.934;8.656;2024-02-04T10:16:14;10.10;99.90
24560;DHT22;12727;49.934;8.656;2024-02-04T10:18:47;10.10;99.90
24560;DHT22;12727;49.934;8.656;2024-02-04T10:21:18;10.00;99.90
24560;DHT22;12727;49.934;8.656;2024-02-04T10:23:48;10.10;99.90
24560;DHT22;12727;49.934;8.656;2024-02-04T10:26:14;10.10;99.90
24560;DHT22;12727;49.934;8.656;2024-02-04T10:28:40;10.10;99.90
24560;DHT22;12727;49.934;8.656;2024-02-04T10:31:08;10.10;99.90
24560;DHT22;12727;49.934;8.656;2024-02-04T10:33:36;10.10;99.90
24560;DHT22;12727;49.934;8.656;2024-02-04T10:36:02;10.00;99.90
24560;DHT22;12727;49.934;8.656;2024-02-04T10:38:28;10.00;99.90
24560;DHT22;12727;49.934;8.656;2024-02-04T10:40:54;10.00;99.90
24560;DHT22;12727;49.934;8.656;2024-02-04T10:43:23;10.10;99.90
24560;DHT22;12727;49.934;8.656;2024-02-04T10:45:52;10.10;99.90
24560;DHT22;12727;49.934;8.656;2024-02-04T10:48:24;10.20;99.90
24560;DHT22;12727;49.934;8.656;2024-02-04T10:50:53;10.20;99.90
24560;DHT22;12727;49.934;8.656;2024-02-04T10:53:22;10.20;99.90
24560;DHT22;12727;49.934;8.656;2024-02-04T10:55:49;10.10;99.90
24560;DHT22;12727;49.934;8.656;2024-02-04T10:58:18;10.00;99.90
24560;DHT22;12727;49.934;8.656;2024-02-04T11:00:44;10.10;99.90
24560;DHT22;12727;49.934;8.656;2024-02-04T11:03:11;10.10;99.90
24560;DHT22;12727;49.934;8.656;2024-02-04T11:05:39;10.20;99.90
24560;DHT22;12727;49.934;8.656;2024-02-04T11:08:08;10.30;99.90
24560;DHT22;12727;49.934;8.656;2024-02-04T11:10:37;10.30;99.90
24560;DHT22;12727;49.934;8.656;2024-02-04T11:13:04;10.40;99.90
24560;DHT22;12727;49.934;8.656;2024-02-04T11:15:35;10.50;99.90
24560;DHT22;12727;49.934;8.656;2024-02-04T11:18:30;10.50;99.90
24560;DHT22;12727;49.934;8.656;2024-02-04T11:21:22;10.50;99.90
24560;DHT22;12727;49.934;8.656;2024-02-04T11:24:04;10.60;99.90
24560;DHT22;12727;49.934;8.656;2024-02-04T11:26:34;10.60;99.90
24560;DHT22;12727;49.934;8.656;2024-02-04T11:29:00;10.60;99.90
24560;DHT22;12727;49.934;8.656;2024-02-04T11:31:28;10.70;99.90
24560;DHT22;12727;49.934;8.656;2024-02-04T11:33:54;10.70;99.90
24560;DHT22;12727;49.934;8.656;2024-02-04T11:36:25;10.80;99.90
24560;DHT22;12727;49.934;8.656;2024-02-04T11:38:51;10.90;99.90
24560;DHT22;12727;49.934;8.656;2024-02-04T11:41:23;10.90;99.90
24560;DHT22;12727;49.934;8.656;2024-02-04T11:43:52;10.80;99.90
24560;DHT22;12727;49.934;8.656;2024-02-04T11:46:19;10.80;99.90
24560;DHT22;12727;49.934;8.656;2024-02-04T11:48:52;10.70;99.90
24560;DHT22;12727;49.934;8.656;2024-02-04T11:51:21;10.90;99.90
24560;DHT22;12727;49.934;8.656;2024-02-04T11:53:46;11.00;99.90
24560;DHT22;12727;49.934;8.656;2024-02-04T11:56:12;11.00;99.90
24560;DHT22;12727;49.934;8.656;2024-02-04T11:58:39;11.00;99.90
24560;DHT22;12727;49.934;8.656;2024-02-04T12:01:10;11.00;99.90
24560;DHT22;12727;49.934;8.656;2024-02-04T12:03:35;11.00;99.90
24560;DHT22;12727;49.934;8.656;2024-02-04T12:06:05;11.10;99.90
24560;DHT22;12727;49.934;8.656;2024-02-04T12:08:32;11.00;99.90
24560;DHT22;12727;49.934;8.656;2024-02-04T12:11:00;11.10;99.90
24560;DHT22;12727;49.934;8.656;2024-02-04T12:13:28;11.00;99.90
24560;DHT22;12727;49.934;8.656;2024-02-04T12:15:54;11.00;99.90
24560;DHT22;12727;49.934;8.656;2024-02-04T12:18:20;10.90;99.90
24560;DHT22;12727;49.934;8.656;2024-02-04T12:20:47;11.00;99.90
24560;DHT22;12727;49.934;8.656;2024-02-04T12:23:14;11.00;99.90
24560;DHT22;12727;49.934;8.656;2024-02-04T12:25:40;10.90;99.90
24560;DHT22;12727;49.934;8.656;2024-02-04T12:28:05;10.80;99.90
24560;DHT22;12727;49.934;8.656;2024-02-04T12:30:32;10.80;99.90
24560;DHT22;12727;49.934;8.656;2024-02-04T12:32:58;10.70;99.90
24560;DHT22;12727;49.934;8.656;2024-02-04T12:35:27;10.70;99.90
24560;DHT22;12727;49.934;8.656;2024-02-04T12:37:54;10.80;99.90
24560;DHT22;12727;49.934;8.656;2024-02-04T12:40:24;10.90;99.90
24560;DHT22;12727;49.934;8.656;2024-02-04T12:43:00;11.00;99.90
24560;DHT22;12727;49.934;8.656;2024-02-04T12:45:30;11.10;99.90
24560;DHT22;12727;49.934;8.656;2024-02-04T12:47:57;11.20;99.90
24560;DHT22;12727;49.934;8.656;2024-02-04T12:50:24;11.20;99.90
24560;DHT22;12727;49.934;8.656;2024-02-04T12:53:07;11.10;99.90
24560;DHT22;12727;49.934;8.656;2024-02-04T12:55:36;11.20;99.90
24560;DHT22;12727;49.934;8.656;2024-02-04T12:58:12;11.10;99.90
24560;DHT22;12727;49.934;8.656;2024-02-04T13:00:40;11.10;99.90
24560;DHT22;12727;49.934;8.656;2024-02-04T13:03:07;11.10;99.90
24560;DHT22;12727;49.934;8.656;2024-02-04T13:05:37;11.10;99.90
24560;DHT22;12727;49.934;8.656;2024-02-04T13:08:04;11.10;99.90
24560;DHT22;12727;49.934;8.656;2024-02-04T13:10:31;11.10;99.90
24560;DHT22;12727;49.934;8.656;2024-02-04T13:13:02;11.10;99.90
24560;DHT22;12727;49.934;8.656;2024-02-04T13:15:47;11.10;99.90
24560;DHT22;12727;49.934;8.656;2024-02-04T13:18:13;11.10;99.90
24560;DHT22;12727;49.934;8.656;2024-02-04T13:20:41;11.00;99.90
24560;DHT22;12727;49.934;8.656;2024-02-04T13:23:11;11.00;99.90
24560;DHT22;12727;49.934;8.656;2024-02-04T13:25:37;11.00;99.90
24560;DHT22;12727;49.934;8.656;2024-02-04T13:28:03;10.90;99.90
24560;DHT22;12727;49.934;8.656;2024-02-04T13:30:29;10.90;99.90
24560;DHT22;12727;49.934;8.656;2024-02-04T13:32:55;10.80;99.90
24560;DHT22;12727;49.934;8.656;2024-02-04T13:35:23;10.80;99.90
24560;DHT22;12727;49.934;8.656;2024-02-04T13:37:49;10.90;99.90
24560;DHT22;12727;49.934;8.656;2024-02-04T13:40:19;10.90;99.90
24560;DHT22;12727;49.934;8.656;2024-02-04T13:42:45;10.90;99.90
24560;DHT22;12727;49.934;8.656;2024-02-04T13:45:11;10.90;99.90
24560;DHT22;12727;49.934;8.656;2024-02-04T13:47:39;11.00;99.90
24560;DHT22;12727;49.934;8.656;2024-02-04T13:50:06;10.90;99.90
24560;DHT22;12727;49.934;8.656;2024-02-04T13:52:34;10.90;99.90
24560;DHT22;12727;49.934;8.656;2024-02-04T13:54:59;10.90;99.90
24560;DHT22;12727;49.934;8.656;2024-02-04T13:57:25;11.00;99.90
24560;DHT22;12727;49.934;8.656;2024-02-04T13:59:50;11.00;99.90
24560;DHT22;12727;49.934;8.656;2024-02-04T14:02:16;11.00;99.90
24560;DHT22;12727;49.934;8.656;2024-02-04T14:04:42;11.10;99.90
24560;DHT22;12727;49.934;8.656;2024-02-04T14:07:08;11.10;99.90
24560;DHT22;12727;49.934;8.656;2024-02-04T14:09:34;11.10;99.90
24560;DHT22;12727;49.934;8.656;2024-02-04T14:12:02;11.10;99.90
24560;DHT22;12727;49.934;8.656;2024-02-04T14:14:28;11.10;99.90
24560;DHT22;12727;49.934;8.656;2024-02-04T14:16:54;11.00;99.90
24560;DHT22;12727;49.934;8.656;2024-02-04T14:19:19;11.10;99.90
24560;DHT22;12727;49.934;8.656;2024-02-04T14:21:45;11.10;99.90
24560;DHT22;12727;49.934;8.656;2024-02-04T14:24:10;11.10;99.90
24560;DHT22;12727;49.934;8.656;2024-02-04T14:26:36;11.10;99.90
24560;DHT22;12727;49.934;8.656;2024-02-04T14:29:02;11.10;99.90
24560;DHT22;12727;49.934;8.656;2024-02-04T14:31:27;11.10;99.90
24560;DHT22;12727;49.934;8.656;2024-02-04T14:33:53;11.10;99.90
24560;DHT22;12727;49.934;8.656;2024-02-04T14:36:18;11.10;99.90
24560;DHT22;12727;49.934;8.656;2024-02-04T14:38:44;11.10;99.90
24560;DHT22;12727;49.934;8.656;2024-02-04T14:41:10;11.10;99.90
24560;DHT22;12727;49.934;8.656;2024-02-04T14:43:36;11.10;99.90
24560;DHT22;12727;49.934;8.656;2024-02-04T14:46:02;11.10;99.90
24560;DHT22;12727;49.934;8.656;2024-02-04T14:48:27;11.10;99.90
24560;DHT22;12727;49.934;8.656;2024-02-04T14:50:53;11.10;99.90
24560;DHT22;12727;49.934;8.656;2024-02-04T14:53:19;11.10;99.90
24560;DHT22;12727;49.934;8.656;2024-02-04T14:55:45;11.10;99.90
24560;DHT22;12727;49.934;8.656;2024-02-04T14:58:11;11.00;99.90
24560;DHT22;12727;49.934;8.656;2024-02-04T15:00:36;11.00;99.90
24560;DHT22;12727;49.934;8.656;2024-02-04T15:03:03;11.00;99.90
24560;DHT22;12727;49.934;8.656;2024-02-04T15:05:29;11.10;99.90
24560;DHT22;12727;49.934;8.656;2024-02-04T15:07:54;11.10;99.90
24560;DHT22;12727;49.934;8.656;2024-02-04T15:10:20;11.10;99.90
24560;DHT22;12727;49.934;8.656;2024-02-04T15:12:46;11.10;99.90
24560;DHT22;12727;49.934;8.656;2024-02-04T15:15:12;11.10;99.90
24560;DHT22;12727;49.934;8.656;2024-02-04T15:17:38;11.20;99.90
24560;DHT22;12727;49.934;8.656;2024-02-04T15:20:04;11.10;99.90
24560;DHT22;12727;49.934;8.656;2024-02-04T15:22:30;11.10;99.90
24560;DHT22;12727;49.934;8.656;2024-02-04T15:24:56;11.10;99.90
24560;DHT22;12727;49.934;8.656;2024-02-04T15:27:23;11.20;99.90
24560;DHT22;12727;49.934;8.656;2024-02-04T15:29:49;11.10;99.90
24560;DHT22;12727;49.934;8.656;2024-02-04T15:32:16;11.10;99.90
24560;DHT22;12727;49.934;8.656;2024-02-04T15:34:42;11.10;99.90
24560;DHT22;12727;49.934;8.656;2024-02-04T15:37:08;11.00;99.90
24560;DHT22;12727;49.934;8.656;2024-02-04T15:39:36;11.00;99.90